createdAt,value
2022-09-04T00:00:13.873Z,18.10
2022-09-04T00:03:15.622Z,17.75
2022-09-04T00:05:56.214Z,16.23
2022-09-04T00:09:01.016Z,16.67
2022-09-04T00:11:50.194Z,16.17
2022-09-04T00:14:29.682Z,16.90
2022-09-04T00:17:14.745Z,16.42
2022-09-04T00:19:56.272Z,16.75
2022-09-04T00:22:38.082Z,16.08
2022-09-04T00:25:08.598Z,17.15
2022-09-04T00:27:45.310Z,16.40
2022-09-04T00:30:22.010Z,17.35
2022-09-04T00:33:14.611Z,16.95
2022-09-04T00:35:57.548Z,16.17
2022-09-04T00:38:53.892Z,17.33
2022-09-04T00:41:43.207Z,16.67
2022-09-04T00:44:37.932Z,17.33
2022-09-04T00:47:27.169Z,17.40
2022-09-04T00:50:14.772Z,17.33
2022-09-04T00:53:15.961Z,18.52
2022-09-04T00:55:57.611Z,19.35
2022-09-04T00:59:15.965Z,18.20
2022-09-04T01:01:47.903Z,17.10
2022-09-04T01:04:36.572Z,16.48
2022-09-04T01:07:40.177Z,17.77
2022-09-04T01:10:34.403Z,16.85
2022-09-04T01:13:42.172Z,17.27
2022-09-04T01:16:41.567Z,17.27
2022-09-04T01:19:34.663Z,17.27
2022-09-04T01:22:47.550Z,16.60
2022-09-04T01:25:48.075Z,16.90
2022-09-04T01:29:07.407Z,17.10
2022-09-04T01:31:56.037Z,18.60
2022-09-04T01:34:47.820Z,17.77
2022-09-04T01:44:19.614Z,17.02
2022-09-04T01:47:20.734Z,17.02
2022-09-04T02:04:51.715Z,15.63
2022-09-04T02:10:39.651Z,14.15
2022-09-04T02:13:45.079Z,13.95
2022-09-04T02:16:47.454Z,13.73
2022-09-04T02:19:29.234Z,12.88
2022-09-04T02:22:12.832Z,13.65
2022-09-04T02:24:49.597Z,13.55
2022-09-04T02:27:55.247Z,15.15
2022-09-04T02:30:22.469Z,13.77
2022-09-04T02:33:20.316Z,12.35
2022-09-04T02:36:06.151Z,12.35
2022-09-04T02:39:00.150Z,13.35
2022-09-04T02:41:42.344Z,12.40
2022-09-04T02:44:48.806Z,12.32
2022-09-04T02:47:47.982Z,12.70
2022-09-04T02:50:48.050Z,12.00
2022-09-04T02:53:33.314Z,11.75
2022-09-04T02:56:47.900Z,11.40
2022-09-04T02:59:30.433Z,11.52
2022-09-04T03:02:03.396Z,10.68
2022-09-04T03:05:00.795Z,11.30
2022-09-04T03:07:33.630Z,11.20
2022-09-04T03:10:21.336Z,9.57
2022-09-04T03:12:56.855Z,10.95
2022-09-04T03:16:05.878Z,10.43
2022-09-04T03:18:59.392Z,10.82
2022-09-04T03:21:42.129Z,10.60
2022-09-04T03:24:29.138Z,9.23
2022-09-04T03:27:04.708Z,9.20
2022-09-04T03:29:51.380Z,10.15
2022-09-04T03:32:30.757Z,10.40
2022-09-04T03:35:24.516Z,9.93
2022-09-04T03:38:20.469Z,10.68
2022-09-04T03:41:25.306Z,10.65
2022-09-04T03:44:18.451Z,10.27
2022-09-04T03:47:00.699Z,11.23
2022-09-04T03:50:05.575Z,10.38
2022-09-04T03:53:03.859Z,11.20
2022-09-04T03:56:12.739Z,11.10
2022-09-04T03:58:51.570Z,10.75
2022-09-04T04:01:45.710Z,11.88
2022-09-04T04:04:35.893Z,11.90
2022-09-04T04:07:29.010Z,11.57
2022-09-04T04:10:33.720Z,11.27
2022-09-04T04:15:43.301Z,13.23
2022-09-04T04:18:32.514Z,15.30
2022-09-04T04:21:11.251Z,13.93
2022-09-04T04:24:32.938Z,14.10
2022-09-04T04:27:28.115Z,14.68
2022-09-04T04:29:55.295Z,13.43
2022-09-04T04:32:46.117Z,13.40
2022-09-04T04:35:29.814Z,13.77
2022-09-04T04:38:35.052Z,14.02
2022-09-04T04:41:08.491Z,12.45
2022-09-04T04:44:17.595Z,12.25
2022-09-04T04:47:18.271Z,13.93
2022-09-04T04:50:18.800Z,13.32
2022-09-04T04:53:46.244Z,13.27
2022-09-04T04:56:45.959Z,12.73
2022-09-04T04:59:23.403Z,12.07
2022-09-04T05:02:10.199Z,13.70
2022-09-04T05:04:49.291Z,13.35
2022-09-04T05:07:34.783Z,13.85
2022-09-04T05:10:19.031Z,14.10
2022-09-04T05:16:30.488Z,13.30
2022-09-04T05:19:15.731Z,13.20
2022-09-04T05:22:22.985Z,14.73
2022-09-04T05:25:30.782Z,13.85
2022-09-04T05:28:28.546Z,14.90
2022-09-04T05:31:09.529Z,13.95
2022-09-04T05:33:55.412Z,14.77
2022-09-04T05:36:45.303Z,13.88
2022-09-04T05:39:44.833Z,15.85
2022-09-04T05:43:08.095Z,14.23
2022-09-04T05:46:03.190Z,14.77
2022-09-04T05:48:52.905Z,15.77
2022-09-04T05:51:50.105Z,15.13
2022-09-04T05:54:38.352Z,14.35
2022-09-04T05:57:32.086Z,15.98
2022-09-04T06:00:16.291Z,17.92
2022-09-04T06:06:03.030Z,16.10
2022-09-04T06:08:49.389Z,17.67
2022-09-04T06:11:48.534Z,19.90
2022-09-04T06:15:01.479Z,19.40
2022-09-04T06:17:51.742Z,20.52
2022-09-04T06:20:45.087Z,21.20
2022-09-04T06:23:23.771Z,21.33
2022-09-04T06:26:13.025Z,20.95
2022-09-04T06:29:05.497Z,21.48
2022-09-04T06:31:50.023Z,21.27
2022-09-04T06:40:07.056Z,18.42
2022-09-04T06:43:19.487Z,21.05
2022-09-04T06:46:13.564Z,21.65
2022-09-04T06:49:18.108Z,23.40
2022-09-04T06:51:56.849Z,14.05
2022-09-04T06:55:04.307Z,20.48
2022-09-04T06:57:52.910Z,19.88
2022-09-04T07:00:20.414Z,25.15
2022-09-04T07:03:25.593Z,26.33
2022-09-04T07:06:12.965Z,24.10
2022-09-04T07:09:28.259Z,24.65
2022-09-04T07:12:23.671Z,25.08
2022-09-04T07:15:32.978Z,22.65
2022-09-04T07:18:48.388Z,25.33
2022-09-04T07:21:39.312Z,21.67
2022-09-04T07:24:38.794Z,25.60
2022-09-04T07:27:55.914Z,24.50
2022-09-04T07:30:27.688Z,26.98
2022-09-04T07:32:58.919Z,27.73
2022-09-04T07:35:58.371Z,26.88
2022-09-04T07:38:34.942Z,30.98
2022-09-04T07:41:17.596Z,29.42
2022-09-04T07:43:55.230Z,30.42
2022-09-04T07:46:41.303Z,26.48
2022-09-04T07:49:39.010Z,26.95
2022-09-04T07:52:54.164Z,29.10
2022-09-04T07:55:41.834Z,30.20
2022-09-04T07:58:33.722Z,28.73
2022-09-04T08:01:26.544Z,26.23
2022-09-04T08:04:03.063Z,26.80
2022-09-04T08:06:44.240Z,26.23
2022-09-04T08:10:03.290Z,27.25
2022-09-04T08:13:02.635Z,27.65
2022-09-04T08:15:47.416Z,27.38
2022-09-04T08:18:27.282Z,29.65
2022-09-04T08:21:16.587Z,31.90
2022-09-04T08:24:05.520Z,29.85
2022-09-04T08:27:04.113Z,28.42
2022-09-04T08:30:11.257Z,28.77
2022-09-04T08:33:03.734Z,27.13
2022-09-04T08:36:10.486Z,24.40
2022-09-04T08:38:55.546Z,27.42
2022-09-04T08:41:48.461Z,26.60
2022-09-04T08:44:24.250Z,25.10
2022-09-04T08:47:18.171Z,24.13
2022-09-04T08:50:37.405Z,23.58
2022-09-04T08:53:29.294Z,24.55
2022-09-04T08:56:06.388Z,25.90
2022-09-04T08:59:17.297Z,24.23
2022-09-04T09:02:29.588Z,25.15
2022-09-04T09:05:25.863Z,22.48
2022-09-04T09:08:36.072Z,24.10
2022-09-04T09:11:19.944Z,24.70
2022-09-04T09:14:05.716Z,24.85
2022-09-04T09:17:18.768Z,25.13
2022-09-04T09:20:10.004Z,23.42
2022-09-04T09:23:21.491Z,24.33
2022-09-04T09:26:30.966Z,24.67
2022-09-04T09:30:09.456Z,24.83
2022-09-04T09:33:04.108Z,23.98
2022-09-04T09:36:08.020Z,24.13
2022-09-04T09:38:59.452Z,23.73
2022-09-04T09:41:44.224Z,24.25
2022-09-04T09:44:58.692Z,23.67
2022-09-04T09:48:02.800Z,24.13
2022-09-04T09:51:06.600Z,23.80
2022-09-04T09:54:25.255Z,23.13
2022-09-04T09:57:33.202Z,23.65
2022-09-04T10:00:15.374Z,22.70
2022-09-04T10:03:07.352Z,22.33
2022-09-04T10:05:44.942Z,20.23
2022-09-04T10:08:56.745Z,19.27
2022-09-04T10:12:21.429Z,17.40
2022-09-04T10:15:21.860Z,16.13
2022-09-04T10:18:41.355Z,15.85
2022-09-04T10:21:35.821Z,16.10
2022-09-04T10:24:10.322Z,16.83
2022-09-04T10:26:56.843Z,17.13
2022-09-04T10:29:50.831Z,17.63
2022-09-04T10:32:57.023Z,18.67
2022-09-04T10:36:06.365Z,19.48
2022-09-04T10:39:01.182Z,19.45
2022-09-04T10:42:05.517Z,21.15
2022-09-04T10:45:02.069Z,17.95
2022-09-04T10:47:51.318Z,19.60
2022-09-04T10:50:46.286Z,18.35
2022-09-04T10:53:31.554Z,18.90
2022-09-04T10:56:09.273Z,17.05
2022-09-04T10:58:54.705Z,15.80
2022-09-04T11:01:58.769Z,14.35
2022-09-04T11:05:08.469Z,14.07
2022-09-04T11:07:52.558Z,13.57
2022-09-04T11:10:44.893Z,15.68
2022-09-04T11:14:12.139Z,14.02
2022-09-04T11:16:57.317Z,12.85
2022-09-04T11:20:18.202Z,15.27
2022-09-04T11:23:22.810Z,12.98
2022-09-04T11:26:06.303Z,13.85
2022-09-04T12:11:46.871Z,11.90
2022-09-04T12:14:42.648Z,11.70
2022-09-04T12:17:32.511Z,12.88
2022-09-04T12:20:49.958Z,11.82
2022-09-04T12:23:52.104Z,12.93
2022-09-04T12:26:31.534Z,16.10
2022-09-04T12:29:27.287Z,15.13
2022-09-04T12:32:31.642Z,16.73
2022-09-04T12:35:33.636Z,15.23
2022-09-04T12:38:25.057Z,14.52
2022-09-04T12:41:23.111Z,11.88
2022-09-04T12:44:23.815Z,11.43
2022-09-04T12:47:02.898Z,12.18
2022-09-04T12:50:10.133Z,7.82
2022-09-04T12:52:53.272Z,9.27
2022-09-04T12:56:03.177Z,9.70
2022-09-04T12:58:47.973Z,6.85
2022-09-04T13:02:03.008Z,5.75
2022-09-04T13:04:55.809Z,7.15
2022-09-04T13:07:52.204Z,5.22
2022-09-04T13:10:22.770Z,5.88
2022-09-04T13:13:30.146Z,7.40
2022-09-04T13:16:42.513Z,6.32
2022-09-04T13:19:20.949Z,7.90
2022-09-04T13:22:15.989Z,7.63
2022-09-04T13:25:27.331Z,7.00
2022-09-04T13:28:30.436Z,5.45
2022-09-04T13:31:35.483Z,5.50
2022-09-04T13:34:24.007Z,4.15
2022-09-04T13:37:13.723Z,4.75
2022-09-04T13:39:51.995Z,5.28
2022-09-04T13:42:48.588Z,4.47
2022-09-04T13:45:23.777Z,4.25
2022-09-04T13:48:01.168Z,3.80
2022-09-04T13:50:52.312Z,3.38
2022-09-04T13:53:35.550Z,3.92
2022-09-04T13:56:15.636Z,5.63
2022-09-04T13:58:51.417Z,5.72
2022-09-04T14:01:25.899Z,5.60
2022-09-04T14:04:07.856Z,5.50
2022-09-04T14:06:37.171Z,4.43
2022-09-04T14:09:06.270Z,6.18
2022-09-04T14:11:45.789Z,3.97
2022-09-04T14:14:37.526Z,4.82
2022-09-04T14:17:09.403Z,3.70
2022-09-04T14:20:03.833Z,4.70
2022-09-04T14:22:58.367Z,4.55
2022-09-04T14:25:50.992Z,3.80
2022-09-04T14:28:43.789Z,2.55
2022-09-04T14:31:33.953Z,1.75
2022-09-04T14:34:52.144Z,1.70
2022-09-04T14:38:05.730Z,3.50
2022-09-04T14:40:48.545Z,3.22
2022-09-04T14:43:44.620Z,2.47
2022-09-04T14:46:48.521Z,1.80
2022-09-04T14:49:23.983Z,2.67
2022-09-04T14:51:56.455Z,2.10
2022-09-04T14:54:28.377Z,2.47
2022-09-04T14:57:02.679Z,1.90
2022-09-04T14:59:41.333Z,2.00
2022-09-04T15:02:21.603Z,2.90
2022-09-04T15:05:24.478Z,2.72
2022-09-04T15:07:56.270Z,2.35
2022-09-04T15:10:50.873Z,2.03
2022-09-04T15:13:33.508Z,1.52
2022-09-04T15:16:21.329Z,1.60
2022-09-04T15:19:17.258Z,1.50
2022-09-04T15:21:58.726Z,1.65
2022-09-04T15:24:31.608Z,2.10
2022-09-04T15:27:05.672Z,1.83
2022-09-04T15:29:51.585Z,2.10
2022-09-04T15:32:22.987Z,1.98
2022-09-04T15:35:06.461Z,1.50
2022-09-04T15:37:35.231Z,1.90
2022-09-04T15:40:32.283Z,2.03
2022-09-04T15:43:15.480Z,1.50
2022-09-04T15:45:55.371Z,1.45
2022-09-04T15:48:48.178Z,1.80
2022-09-04T15:51:28.658Z,1.70
2022-09-04T15:54:10.787Z,2.00
2022-09-04T15:56:45.975Z,2.13
2022-09-04T15:59:23.226Z,1.95
2022-09-04T16:02:07.652Z,1.85
2022-09-04T16:05:03.323Z,1.45
2022-09-04T16:07:49.522Z,1.48
2022-09-04T16:10:25.816Z,1.52
2022-09-04T16:12:59.455Z,1.90
2022-09-04T16:16:04.134Z,1.63
2022-09-04T16:18:37.752Z,1.42
2022-09-04T16:21:48.500Z,2.00
2022-09-04T16:24:29.779Z,1.90
2022-09-04T16:26:57.828Z,3.13
2022-09-04T16:29:32.762Z,2.25
2022-09-04T16:31:59.839Z,8.65
2022-09-04T16:34:43.347Z,3.17
2022-09-04T16:37:18.912Z,1.63
2022-09-04T16:39:57.358Z,1.90
2022-09-04T16:42:41.783Z,3.15
2022-09-04T16:45:20.021Z,1.80
2022-09-04T16:48:01.925Z,1.95
2022-09-04T16:51:15.881Z,2.08
2022-09-04T16:53:58.913Z,1.15
2022-09-04T16:56:49.786Z,1.90
2022-09-04T16:59:32.256Z,1.80
2022-09-04T17:02:37.670Z,1.50
2022-09-04T17:05:28.088Z,1.33
2022-09-04T17:08:33.919Z,1.67
2022-09-04T17:11:14.107Z,2.10
2022-09-04T17:13:52.266Z,1.92
2022-09-04T17:16:25.418Z,1.65
2022-09-04T17:18:54.764Z,2.33
2022-09-04T17:26:25.343Z,5.18
2022-09-04T17:29:00.161Z,2.30
2022-09-04T17:29:18.805Z,2.70
2022-09-04T17:30:56.518Z,2.17
2022-09-04T17:37:37.014Z,1.80
2022-09-04T17:40:49.398Z,2.10
2022-09-04T17:40:57.148Z,2.05
2022-09-04T17:43:22.327Z,1.45
2022-09-04T17:46:29.372Z,1.67
2022-09-04T17:48:56.866Z,1.83
2022-09-04T17:51:33.688Z,3.03
2022-09-04T17:54:13.503Z,3.13
2022-09-04T17:57:12.714Z,3.28
2022-09-04T17:59:58.824Z,2.60
2022-09-04T18:02:42.968Z,5.50
2022-09-04T18:05:42.557Z,2.15
2022-09-04T18:08:32.787Z,2.17
2022-09-04T18:11:17.997Z,10.80
2022-09-04T18:14:14.168Z,67.63
2022-09-04T18:17:11.705Z,30.40
2022-09-04T18:19:48.964Z,20.75
2022-09-04T18:22:52.983Z,12.15
2022-09-04T18:25:53.159Z,8.35
2022-09-04T18:30:27.463Z,6.20
2022-09-04T18:37:11.546Z,6.25
2022-09-04T18:37:17.804Z,5.82
2022-09-04T18:37:59.835Z,6.25
2022-09-04T18:43:18.204Z,5.72
2022-09-04T18:50:24.568Z,6.72
2022-09-04T18:50:36.248Z,278.70
2022-09-04T18:50:46.885Z,276.65
2022-09-04T18:52:43.172Z,50.78
2022-09-04T18:55:24.397Z,16.52
2022-09-04T18:58:37.109Z,16.50
2022-09-04T19:01:14.151Z,28.90
2022-09-04T19:04:18.541Z,77.95
2022-09-04T19:07:17.970Z,33.78
2022-09-04T19:09:55.362Z,26.63
2022-09-04T19:12:36.941Z,17.50
2022-09-04T19:16:04.049Z,27.10
2022-09-04T19:18:31.430Z,8.55
2022-09-04T19:21:14.682Z,7.60
2022-09-04T19:23:56.292Z,7.88
2022-09-04T19:26:29.785Z,7.95
2022-09-04T19:29:14.407Z,7.07
2022-09-04T19:31:52.847Z,6.15
2022-09-04T19:34:56.958Z,6.65
2022-09-04T19:40:44.717Z,7.22
2022-09-04T19:45:56.803Z,7.43
2022-09-04T19:46:26.594Z,7.80
2022-09-04T19:46:44.047Z,8.77
2022-09-04T19:51:38.834Z,8.32
2022-09-04T19:53:34.184Z,8.05
2022-09-04T19:55:23.907Z,7.70
2022-09-04T19:58:25.561Z,9.23
2022-09-04T20:00:59.434Z,8.60
2022-09-04T20:03:34.411Z,8.35
2022-09-04T20:06:20.789Z,8.85
2022-09-04T20:09:02.978Z,9.45
2022-09-04T20:11:57.704Z,9.70
2022-09-04T20:14:40.887Z,9.02
2022-09-04T20:17:32.817Z,9.32
2022-09-04T20:20:04.234Z,9.20
2022-09-04T20:22:48.603Z,8.80
2022-09-04T20:25:21.522Z,9.25
2022-09-04T20:28:29.123Z,8.65
2022-09-04T20:31:33.268Z,8.57
2022-09-04T20:34:32.230Z,8.85
2022-09-04T20:37:31.856Z,10.80
2022-09-04T20:40:36.483Z,12.95
2022-09-04T20:48:07.715Z,14.85
2022-09-04T20:52:49.567Z,15.80
2022-09-04T20:53:06.323Z,16.63
2022-09-04T20:55:03.292Z,15.68
2022-09-04T21:02:44.548Z,12.20
2022-09-04T21:03:17.249Z,14.07
2022-09-04T21:05:01.396Z,13.40
2022-09-04T21:07:54.135Z,12.27
2022-09-04T21:10:35.982Z,13.43
2022-09-04T21:13:19.105Z,14.80
2022-09-04T21:15:45.972Z,15.70
2022-09-04T21:19:28.759Z,13.57
2022-09-04T21:22:33.182Z,14.52
2022-09-04T21:25:37.499Z,14.77
2022-09-04T21:28:35.143Z,15.63
2022-09-04T21:31:54.361Z,18.35
2022-09-04T21:35:02.183Z,16.00
2022-09-04T21:37:51.619Z,15.88
2022-09-04T21:40:51.251Z,16.42
2022-09-04T21:43:49.973Z,17.45
2022-09-04T21:46:57.724Z,18.27
2022-09-04T21:50:09.671Z,18.52
2022-09-04T21:53:05.420Z,18.25
2022-09-04T22:00:00.710Z,19.05
2022-09-04T22:02:39.477Z,19.33
2022-09-04T22:02:51.355Z,21.10
2022-09-04T22:05:27.089Z,21.85
2022-09-04T22:13:32.066Z,20.77
2022-09-04T22:13:43.202Z,21.52
2022-09-04T22:14:54.095Z,22.13
2022-09-04T22:17:37.661Z,21.05
2022-09-04T22:20:44.496Z,20.50
2022-09-04T22:23:31.432Z,19.48
2022-09-04T22:26:41.059Z,20.23
2022-09-04T22:29:40.325Z,21.02
2022-09-04T22:32:20.040Z,21.02
2022-09-04T22:35:20.151Z,22.20
2022-09-04T22:38:33.626Z,23.17
2022-09-04T22:41:21.215Z,22.70
2022-09-04T22:44:12.232Z,24.95
2022-09-04T22:47:26.168Z,22.88
2022-09-04T22:50:34.322Z,21.97
2022-09-04T22:53:27.440Z,21.67
2022-09-04T22:56:23.167Z,21.98
2022-09-04T22:58:55.651Z,21.33
2022-09-04T23:02:14.197Z,25.17
2022-09-04T23:05:02.271Z,23.35
2022-09-04T23:13:44.349Z,24.05
2022-09-04T23:13:54.156Z,21.23
2022-09-04T23:15:11.883Z,19.70
2022-09-04T23:17:42.033Z,20.92
2022-09-04T23:26:33.529Z,20.30
2022-09-04T23:26:44.146Z,20.65
2022-09-04T23:27:52.041Z,20.33
2022-09-04T23:30:27.148Z,21.80
2022-09-04T23:33:27.958Z,23.35
2022-09-04T23:36:01.822Z,25.02
2022-09-04T23:38:57.194Z,25.45
2022-09-04T23:41:48.811Z,29.67
2022-09-04T23:44:48.264Z,27.33
2022-09-04T23:47:48.197Z,28.17
2022-09-04T23:51:16.603Z,32.65
2022-09-04T23:54:25.408Z,33.28
2022-09-04T23:57:26.002Z,32.05
